sensor_id;sensor_type;location;lat;lon;timestamp;pressure;altitude;pressure_sealevel;temperature;humidity
61359;BME280;47228;46.762;23.598;2023-09-12T00:01:44;97256.86;;;17.17;63.71
61359;BME280;47228;46.762;23.598;2023-09-12T00:04:12;97262.64;;;17.15;63.86
61359;BME280;47228;46.762;23.598;2023-09-12T00:06:40;97260.27;;;17.15;63.82
61359;BME280;47228;46.762;23.598;2023-09-12T00:09:08;97263.86;;;17.13;64.04
61359;BME280;47228;46.762;23.598;2023-09-12T00:11:36;97259.84;;;17.14;63.94
61359;BME280;47228;46.762;23.598;2023-09-12T00:14:04;97257.16;;;17.14;64.02
61359;BME280;47228;46.762;23.598;2023-09-12T00:16:32;97261.93;;;17.13;63.93
61359;BME280;47228;46.762;23.598;2023-09-12T00:19:00;97261.55;;;17.13;63.96
61359;BME280;47228;46.762;23.598;2023-09-12T00:21:28;97261.83;;;17.14;63.84
61359;BME280;47228;46.762;23.598;2023-09-12T00:23:56;97258.23;;;17.14;64.03
61359;BME280;47228;46.762;23.598;2023-09-12T00:26:24;97258.11;;;17.14;63.95
61359;BME280;47228;46.762;23.598;2023-09-12T00:28:52;97260.42;;;17.13;64.19
61359;BME280;47228;46.762;23.598;2023-09-12T00:31:20;97257.69;;;17.14;64.11
61359;BME280;47228;46.762;23.598;2023-09-12T00:33:48;97254.34;;;17.12;64.07
61359;BME280;47228;46.762;23.598;2023-09-12T00:36:16;97258.20;;;17.09;64.08
61359;BME280;47228;46.762;23.598;2023-09-12T00:38:44;97256.83;;;17.03;64.33
61359;BME280;47228;46.762;23.598;2023-09-12T00:41:12;97256.60;;;16.99;64.33
61359;BME280;47228;46.762;23.598;2023-09-12T00:43:40;97256.66;;;16.96;64.35
61359;BME280;47228;46.762;23.598;2023-09-12T00:46:08;97257.84;;;16.95;64.37
61359;BME280;47228;46.762;23.598;2023-09-12T00:48:37;97255.58;;;16.95;64.34
61359;BME280;47228;46.762;23.598;2023-09-12T00:51:05;97257.88;;;16.93;64.44
61359;BME280;47228;46.762;23.598;2023-09-12T00:53:34;97259.55;;;16.91;64.47
61359;BME280;47228;46.762;23.598;2023-09-12T00:56:02;97258.98;;;16.88;64.24
61359;BME280;47228;46.762;23.598;2023-09-12T00:58:30;97257.09;;;16.87;64.45
61359;BME280;47228;46.762;23.598;2023-09-12T01:00:58;97255.83;;;16.86;64.62
61359;BME280;47228;46.762;23.598;2023-09-12T01:03:26;97255.44;;;16.84;64.72
61359;BME280;47228;46.762;23.598;2023-09-12T01:05:57;97255.30;;;16.83;64.73
61359;BME280;47228;46.762;23.598;2023-09-12T01:08:25;97256.69;;;16.83;64.89
61359;BME280;47228;46.762;23.598;2023-09-12T01:10:55;97256.19;;;16.81;64.95
61359;BME280;47228;46.762;23.598;2023-09-12T01:13:24;97259.06;;;16.79;65.23
61359;BME280;47228;46.762;23.598;2023-09-12T01:15:52;97258.58;;;16.76;65.15
61359;BME280;47228;46.762;23.598;2023-09-12T01:18:20;97262.20;;;16.74;65.24
61359;BME280;47228;46.762;23.598;2023-09-12T01:21:18;97260.80;;;16.73;65.38
61359;BME280;47228;46.762;23.598;2023-09-12T01:24:00;97260.09;;;16.72;65.35
61359;BME280;47228;46.762;23.598;2023-09-12T01:29:15;97264.94;;;16.67;65.28
61359;BME280;47228;46.762;23.598;2023-09-12T01:31:44;97265.59;;;16.64;65.56
61359;BME280;47228;46.762;23.598;2023-09-12T01:34:12;97266.31;;;16.62;65.65
61359;BME280;47228;46.762;23.598;2023-09-12T01:36:40;97262.75;;;16.60;65.65
61359;BME280;47228;46.762;23.598;2023-09-12T01:39:08;97267.02;;;16.61;65.69
61359;BME280;47228;46.762;23.598;2023-09-12T01:41:40;97267.85;;;16.61;65.85
61359;BME280;47228;46.762;23.598;2023-09-12T01:44:09;97268.75;;;16.60;65.82
61359;BME280;47228;46.762;23.598;2023-09-12T01:46:38;97269.77;;;16.60;65.91
61359;BME280;47228;46.762;23.598;2023-09-12T01:49:07;97271.06;;;16.60;65.72
61359;BME280;47228;46.762;23.598;2023-09-12T01:51:37;97271.41;;;16.59;65.68
61359;BME280;47228;46.762;23.598;2023-09-12T01:54:06;97270.88;;;16.59;65.76
61359;BME280;47228;46.762;23.598;2023-09-12T01:56:34;97271.42;;;16.60;66.03
61359;BME280;47228;46.762;23.598;2023-09-12T01:59:03;97272.47;;;16.61;66.10
61359;BME280;47228;46.762;23.598;2023-09-12T02:01:31;97271.56;;;16.61;65.63
61359;BME280;47228;46.762;23.598;2023-09-12T02:03:59;97273.48;;;16.61;65.79
61359;BME280;47228;46.762;23.598;2023-09-12T02:06:27;97271.51;;;16.61;65.80
61359;BME280;47228;46.762;23.598;2023-09-12T02:08:55;97273.37;;;16.61;65.89
61359;BME280;47228;46.762;23.598;2023-09-12T02:11:23;97274.08;;;16.61;65.95
61359;BME280;47228;46.762;23.598;2023-09-12T02:13:53;97279.39;;;16.61;66.19
61359;BME280;47228;46.762;23.598;2023-09-12T02:16:21;97277.86;;;16.59;65.99
61359;BME280;47228;46.762;23.598;2023-09-12T02:18:49;97277.77;;;16.58;66.17
61359;BME280;47228;46.762;23.598;2023-09-12T02:21:18;97275.72;;;16.56;66.26
61359;BME280;47228;46.762;23.598;2023-09-12T02:23:46;97276.98;;;16.54;66.40
61359;BME280;47228;46.762;23.598;2023-09-12T02:26:14;97278.21;;;16.50;66.70
61359;BME280;47228;46.762;23.598;2023-09-12T02:28:42;97279.35;;;16.48;66.87
61359;BME280;47228;46.762;23.598;2023-09-12T02:31:11;97284.40;;;16.45;67.03
61359;BME280;47228;46.762;23.598;2023-09-12T02:33:39;97285.45;;;16.41;67.09
61359;BME280;47228;46.762;23.598;2023-09-12T02:36:08;97283.34;;;16.34;67.03
61359;BME280;47228;46.762;23.598;2023-09-12T02:38:36;97283.41;;;16.27;67.26
61359;BME280;47228;46.762;23.598;2023-09-12T02:41:04;97280.59;;;16.22;67.85
61359;BME280;47228;46.762;23.598;2023-09-12T02:43:32;97281.58;;;16.17;67.82
61359;BME280;47228;46.762;23.598;2023-09-12T02:46:00;97282.20;;;16.12;68.05
61359;BME280;47228;46.762;23.598;2023-09-12T02:48:28;97283.67;;;16.08;68.13
61359;BME280;47228;46.762;23.598;2023-09-12T02:50:56;97284.12;;;16.07;68.37
61359;BME280;47228;46.762;23.598;2023-09-12T02:53:24;97282.52;;;16.07;68.13
61359;BME280;47228;46.762;23.598;2023-09-12T02:55:52;97283.14;;;16.08;67.98
61359;BME280;47228;46.762;23.598;2023-09-12T02:58:22;97280.55;;;16.10;67.66
61359;BME280;47228;46.762;23.598;2023-09-12T03:00:50;97282.02;;;16.12;67.43
61359;BME280;47228;46.762;23.598;2023-09-12T03:03:22;97285.44;;;16.14;67.19
61359;BME280;47228;46.762;23.598;2023-09-12T03:06:00;97285.45;;;16.15;66.91
61359;BME280;47228;46.762;23.598;2023-09-12T03:08:30;97283.73;;;16.15;66.59
61359;BME280;47228;46.762;23.598;2023-09-12T03:10:58;97284.95;;;16.14;66.57
61359;BME280;47228;46.762;23.598;2023-09-12T03:13:26;97290.73;;;16.13;66.58
61359;BME280;47228;46.762;23.598;2023-09-12T03:15:54;97289.40;;;16.14;66.90
61359;BME280;47228;46.762;23.598;2023-09-12T03:18:22;97287.73;;;16.14;66.83
61359;BME280;47228;46.762;23.598;2023-09-12T03:20:50;97288.36;;;16.13;66.77
61359;BME280;47228;46.762;23.598;2023-09-12T03:23:21;97287.66;;;16.09;67.07
61359;BME280;47228;46.762;23.598;2023-09-12T03:25:49;97287.59;;;16.05;67.47
61359;BME280;47228;46.762;23.598;2023-09-12T03:28:17;97290.26;;;16.02;67.95
61359;BME280;47228;46.762;23.598;2023-09-12T03:30:45;97290.83;;;16.00;68.01
61359;BME280;47228;46.762;23.598;2023-09-12T03:33:13;97295.66;;;15.99;68.48
61359;BME280;47228;46.762;23.598;2023-09-12T03:35:42;97293.52;;;15.96;68.43
61359;BME280;47228;46.762;23.598;2023-09-12T03:38:10;97297.79;;;15.91;68.71
61359;BME280;47228;46.762;23.598;2023-09-12T03:40:38;97297.27;;;15.86;68.94
61359;BME280;47228;46.762;23.598;2023-09-12T03:43:06;97294.47;;;15.82;69.28
61359;BME280;47228;46.762;23.598;2023-09-12T03:45:34;97292.72;;;15.77;69.46
61359;BME280;47228;46.762;23.598;2023-09-12T03:48:03;97292.16;;;15.73;69.83
61359;BME280;47228;46.762;23.598;2023-09-12T03:50:31;97293.45;;;15.70;70.10
61359;BME280;47228;46.762;23.598;2023-09-12T03:52:59;97295.38;;;15.70;70.20
61359;BME280;47228;46.762;23.598;2023-09-12T03:55:27;97297.11;;;15.72;70.43
61359;BME280;47228;46.762;23.598;2023-09-12T03:57:55;97295.35;;;15.72;70.37
61359;BME280;47228;46.762;23.598;2023-09-12T04:00:23;97297.41;;;15.71;70.43
61359;BME280;47228;46.762;23.598;2023-09-12T04:02:51;97294.30;;;15.67;70.40
61359;BME280;47228;46.762;23.598;2023-09-12T04:05:19;97296.63;;;15.63;70.72
61359;BME280;47228;46.762;23.598;2023-09-12T04:07:47;97300.27;;;15.60;70.82
61359;BME280;47228;46.762;23.598;2023-09-12T04:10:15;97302.16;;;15.59;70.87
61359;BME280;47228;46.762;23.598;2023-09-12T04:12:46;97299.42;;;15.58;71.28
61359;BME280;47228;46.762;23.598;2023-09-12T04:15:14;97301.91;;;15.59;71.40
61359;BME280;47228;46.762;23.598;2023-09-12T04:17:42;97299.02;;;15.60;71.04
61359;BME280;47228;46.762;23.598;2023-09-12T04:20:10;97299.95;;;15.62;70.95
61359;BME280;47228;46.762;23.598;2023-09-12T04:22:42;97302.46;;;15.66;70.86
61359;BME280;47228;46.762;23.598;2023-09-12T04:25:10;97303.60;;;15.69;71.29
61359;BME280;47228;46.762;23.598;2023-09-12T04:27:40;97301.05;;;15.71;70.97
61359;BME280;47228;46.762;23.598;2023-09-12T04:30:09;97303.16;;;15.72;70.85
61359;BME280;47228;46.762;23.598;2023-09-12T04:32:37;97301.41;;;15.73;70.95
61359;BME280;47228;46.762;23.598;2023-09-12T04:35:06;97303.66;;;15.75;70.95
61359;BME280;47228;46.762;23.598;2023-09-12T04:37:34;97305.86;;;15.78;70.97
61359;BME280;47228;46.762;23.598;2023-09-12T04:40:03;97306.00;;;15.80;70.88
61359;BME280;47228;46.762;23.598;2023-09-12T04:42:33;97309.64;;;15.82;70.50
61359;BME280;47228;46.762;23.598;2023-09-12T04:45:02;97310.83;;;15.82;70.57
61359;BME280;47228;46.762;23.598;2023-09-12T04:47:30;97312.48;;;15.83;70.61
61359;BME280;47228;46.762;23.598;2023-09-12T04:49:58;97312.42;;;15.85;70.90
61359;BME280;47228;46.762;23.598;2023-09-12T04:52:26;97315.58;;;15.88;71.22
61359;BME280;47228;46.762;23.598;2023-09-12T04:54:54;97315.89;;;15.90;71.18
61359;BME280;47228;46.762;23.598;2023-09-12T04:57:22;97315.92;;;15.93;71.10
61359;BME280;47228;46.762;23.598;2023-09-12T04:59:51;97314.66;;;15.95;70.84
61359;BME280;47228;46.762;23.598;2023-09-12T05:02:20;97316.45;;;15.96;70.90
61359;BME280;47228;46.762;23.598;2023-09-12T05:04:48;97319.16;;;15.98;71.04
61359;BME280;47228;46.762;23.598;2023-09-12T05:07:16;97322.11;;;16.01;70.89
61359;BME280;47228;46.762;23.598;2023-09-12T05:09:44;97321.56;;;16.04;70.76
61359;BME280;47228;46.762;23.598;2023-09-12T05:12:12;97320.62;;;16.07;70.71
61359;BME280;47228;46.762;23.598;2023-09-12T05:14:40;97319.02;;;16.11;71.18
61359;BME280;47228;46.762;23.598;2023-09-12T05:17:08;97322.27;;;16.13;70.68
61359;BME280;47228;46.762;23.598;2023-09-12T05:19:36;97326.91;;;16.15;70.52
61359;BME280;47228;46.762;23.598;2023-09-12T05:22:04;97324.19;;;16.15;70.44
61359;BME280;47228;46.762;23.598;2023-09-12T05:24:31;97327.90;;;16.19;70.24
61359;BME280;47228;46.762;23.598;2023-09-12T05:27:00;97328.30;;;16.21;70.22
61359;BME280;47228;46.762;23.598;2023-09-12T05:29:28;97327.56;;;16.24;70.27
61359;BME280;47228;46.762;23.598;2023-09-12T05:31:56;97324.15;;;16.29;70.29
61359;BME280;47228;46.762;23.598;2023-09-12T05:34:24;97324.50;;;16.33;70.36
61359;BME280;47228;46.762;23.598;2023-09-12T05:36:52;97326.65;;;16.36;70.18
61359;BME280;47228;46.762;23.598;2023-09-12T05:39:20;97327.71;;;16.42;70.14
61359;BME280;47228;46.762;23.598;2023-09-12T05:41:49;97330.15;;;16.50;70.12
61359;BME280;47228;46.762;23.598;2023-09-12T05:44:17;97327.77;;;16.58;70.06
61359;BME280;47228;46.762;23.598;2023-09-12T05:46:46;97328.81;;;16.67;69.59
61359;BME280;47228;46.762;23.598;2023-09-12T05:49:15;97328.42;;;16.76;69.79
61359;BME280;47228;46.762;23.598;2023-09-12T05:51:43;97327.81;;;16.82;69.13
61359;BME280;47228;46.762;23.598;2023-09-12T05:54:11;97327.80;;;16.88;68.56
61359;BME280;47228;46.762;23.598;2023-09-12T05:56:43;97326.48;;;16.94;68.13
61359;BME280;47228;46.762;23.598;2023-09-12T05:59:11;97328.77;;;17.00;67.72
61359;BME280;47228;46.762;23.598;2023-09-12T06:01:39;97331.30;;;17.07;67.53
61359;BME280;47228;46.762;23.598;2023-09-12T06:04:09;97332.11;;;17.13;67.71
61359;BME280;47228;46.762;23.598;2023-09-12T06:06:37;97338.16;;;17.20;67.44
61359;BME280;47228;46.762;23.598;2023-09-12T06:09:06;97335.99;;;17.26;67.62
61359;BME280;47228;46.762;23.598;2023-09-12T06:11:36;97334.50;;;17.32;67.58
61359;BME280;47228;46.762;23.598;2023-09-12T06:14:04;97338.79;;;17.38;67.73
61359;BME280;47228;46.762;23.598;2023-09-12T06:16:32;97343.55;;;17.46;67.77
61359;BME280;47228;46.762;23.598;2023-09-12T06:19:00;97341.77;;;17.52;67.73
61359;BME280;47228;46.762;23.598;2023-09-12T06:21:28;97345.48;;;17.59;66.75
61359;BME280;47228;46.762;23.598;2023-09-12T06:24:11;97346.86;;;17.65;66.61
61359;BME280;47228;46.762;23.598;2023-09-12T06:26:40;97349.15;;;17.72;66.35
61359;BME280;47228;46.762;23.598;2023-09-12T06:29:08;97348.64;;;17.79;66.06
61359;BME280;47228;46.762;23.598;2023-09-12T06:31:37;97351.77;;;17.85;65.81
61359;BME280;47228;46.762;23.598;2023-09-12T06:34:05;97355.11;;;17.91;65.81
61359;BME280;47228;46.762;23.598;2023-09-12T06:36:33;97356.42;;;17.97;65.46
61359;BME280;47228;46.762;23.598;2023-09-12T06:39:01;97354.51;;;18.04;65.12
61359;BME280;47228;46.762;23.598;2023-09-12T06:41:31;97354.27;;;18.10;64.91
61359;BME280;47228;46.762;23.598;2023-09-12T06:43:59;97356.35;;;18.18;65.08
61359;BME280;47228;46.762;23.598;2023-09-12T06:46:27;97358.50;;;18.27;65.10
61359;BME280;47228;46.762;23.598;2023-09-12T06:48:55;97361.38;;;18.37;64.66
61359;BME280;47228;46.762;23.598;2023-09-12T06:51:25;97364.52;;;18.45;64.28
61359;BME280;47228;46.762;23.598;2023-09-12T06:53:59;97366.00;;;18.53;64.28
61359;BME280;47228;46.762;23.598;2023-09-12T06:56:27;97364.46;;;18.63;64.05
61359;BME280;47228;46.762;23.598;2023-09-12T06:58:55;97364.28;;;18.72;63.48
61359;BME280;47228;46.762;23.598;2023-09-12T07:01:23;97367.00;;;18.83;63.43
61359;BME280;47228;46.762;23.598;2023-09-12T07:03:51;97364.48;;;18.93;63.07
61359;BME280;47228;46.762;23.598;2023-09-12T07:06:23;97367.22;;;19.04;62.89
61359;BME280;47228;46.762;23.598;2023-09-12T07:08:51;97367.20;;;19.16;62.78
61359;BME280;47228;46.762;23.598;2023-09-12T07:11:19;97369.83;;;19.27;62.79
61359;BME280;47228;46.762;23.598;2023-09-12T07:13:47;97372.52;;;19.40;62.86
61359;BME280;47228;46.762;23.598;2023-09-12T07:16:17;97371.09;;;19.53;62.61
61359;BME280;47228;46.762;23.598;2023-09-12T07:18:47;97365.71;;;19.66;63.14
61359;BME280;47228;46.762;23.598;2023-09-12T07:21:16;97367.55;;;19.80;62.87
61359;BME280;47228;46.762;23.598;2023-09-12T07:23:44;97373.05;;;19.94;62.28
61359;BME280;47228;46.762;23.598;2023-09-12T07:26:13;97376.77;;;20.05;62.09
61359;BME280;47228;46.762;23.598;2023-09-12T07:28:41;97377.69;;;20.17;62.40
61359;BME280;47228;46.762;23.598;2023-09-12T07:31:09;97377.98;;;20.28;61.42
61359;BME280;47228;46.762;23.598;2023-09-12T07:33:38;97374.87;;;20.40;61.14
61359;BME280;47228;46.762;23.598;2023-09-12T07:36:06;97372.63;;;20.50;60.61
61359;BME280;47228;46.762;23.598;2023-09-12T07:38:34;97372.95;;;20.61;60.40
61359;BME280;47228;46.762;23.598;2023-09-12T07:41:03;97373.29;;;20.70;60.00
61359;BME280;47228;46.762;23.598;2023-09-12T07:43:32;97371.73;;;20.78;59.46
61359;BME280;47228;46.762;23.598;2023-09-12T07:46:01;97372.93;;;20.87;59.49
61359;BME280;47228;46.762;23.598;2023-09-12T07:48:29;97369.15;;;20.96;59.29
61359;BME280;47228;46.762;23.598;2023-09-12T07:50:57;97372.98;;;21.08;59.74
61359;BME280;47228;46.762;23.598;2023-09-12T07:53:25;97372.75;;;21.21;60.22
61359;BME280;47228;46.762;23.598;2023-09-12T07:55:53;97370.52;;;21.31;59.95
61359;BME280;47228;46.762;23.598;2023-09-12T07:58:22;97371.95;;;21.42;59.52
61359;BME280;47228;46.762;23.598;2023-09-12T08:00:50;97370.41;;;21.54;59.15
61359;BME280;47228;46.762;23.598;2023-09-12T08:03:18;97371.24;;;21.66;59.17
61359;BME280;47228;46.762;23.598;2023-09-12T08:05:56;97371.88;;;21.77;59.12
61359;BME280;47228;46.762;23.598;2023-09-12T08:08:25;97373.08;;;21.89;58.32
61359;BME280;47228;46.762;23.598;2023-09-12T08:10:53;97370.23;;;21.98;57.47
61359;BME280;47228;46.762;23.598;2023-09-12T08:13:21;97370.94;;;22.06;57.14
61359;BME280;47228;46.762;23.598;2023-09-12T08:15:49;97369.70;;;22.15;56.69
61359;BME280;47228;46.762;23.598;2023-09-12T08:18:17;97372.14;;;22.25;56.95
61359;BME280;47228;46.762;23.598;2023-09-12T08:20:45;97369.98;;;22.34;56.75
61359;BME280;47228;46.762;23.598;2023-09-12T08:23:13;97374.34;;;22.45;57.32
61359;BME280;47228;46.762;23.598;2023-09-12T08:25:41;97375.33;;;22.54;57.80
61359;BME280;47228;46.762;23.598;2023-09-12T08:28:09;97375.55;;;22.65;57.18
61359;BME280;47228;46.762;23.598;2023-09-12T08:30:37;97380.42;;;22.76;56.99
61359;BME280;47228;46.762;23.598;2023-09-12T08:33:05;97379.98;;;22.87;56.44
61359;BME280;47228;46.762;23.598;2023-09-12T08:35:34;97379.17;;;22.97;56.38
61359;BME280;47228;46.762;23.598;2023-09-12T08:38:02;97379.15;;;23.08;56.24
61359;BME280;47228;46.762;23.598;2023-09-12T08:40:32;97376.84;;;23.17;55.50
61359;BME280;47228;46.762;23.598;2023-09-12T08:43:01;97379.05;;;23.24;54.53
61359;BME280;47228;46.762;23.598;2023-09-12T08:45:31;97375.30;;;23.31;54.47
61359;BME280;47228;46.762;23.598;2023-09-12T08:48:00;97379.25;;;23.40;54.45
61359;BME280;47228;46.762;23.598;2023-09-12T08:50:29;97376.09;;;23.48;54.44
61359;BME280;47228;46.762;23.598;2023-09-12T08:53:02;97377.70;;;23.57;54.54
61359;BME280;47228;46.762;23.598;2023-09-12T08:55:35;97375.56;;;23.65;53.85
61359;BME280;47228;46.762;23.598;2023-09-12T08:58:05;97374.73;;;23.75;54.33
61359;BME280;47228;46.762;23.598;2023-09-12T09:00:35;97374.95;;;23.85;54.05
61359;BME280;47228;46.762;23.598;2023-09-12T09:03:04;97372.13;;;23.94;53.74
61359;BME280;47228;46.762;23.598;2023-09-12T09:05:34;97370.20;;;24.06;53.59
61359;BME280;47228;46.762;23.598;2023-09-12T09:08:03;97364.86;;;24.13;53.82
61359;BME280;47228;46.762;23.598;2023-09-12T09:10:31;97365.39;;;24.22;53.88
61359;BME280;47228;46.762;23.598;2023-09-12T09:13:04;97365.62;;;24.33;53.06
61359;BME280;47228;46.762;23.598;2023-09-12T09:15:34;97365.23;;;24.45;52.33
61359;BME280;47228;46.762;23.598;2023-09-12T09:18:04;97362.63;;;24.56;52.17
61359;BME280;47228;46.762;23.598;2023-09-12T09:20:34;97359.98;;;24.69;52.26
61359;BME280;47228;46.762;23.598;2023-09-12T09:23:07;97355.38;;;24.81;51.93
61359;BME280;47228;46.762;23.598;2023-09-12T09:25:42;97358.52;;;24.94;50.82
61359;BME280;47228;46.762;23.598;2023-09-12T09:28:18;97361.06;;;25.08;50.38
61359;BME280;47228;46.762;23.598;2023-09-12T09:30:50;97358.33;;;25.20;50.76
61359;BME280;47228;46.762;23.598;2023-09-12T09:33:23;97355.48;;;25.34;50.16
61359;BME280;47228;46.762;23.598;2023-09-12T09:36:02;97355.96;;;25.46;49.70
61359;BME280;47228;46.762;23.598;2023-09-12T09:38:31;97353.21;;;25.57;49.15
61359;BME280;47228;46.762;23.598;2023-09-12T09:40:59;97348.05;;;25.68;48.70
61359;BME280;47228;46.762;23.598;2023-09-12T09:43:30;97348.50;;;25.79;47.91
61359;BME280;47228;46.762;23.598;2023-09-12T09:45:59;97349.30;;;25.91;47.75
61359;BME280;47228;46.762;23.598;2023-09-12T09:48:27;97347.98;;;26.04;47.69
61359;BME280;47228;46.762;23.598;2023-09-12T09:51:02;97349.30;;;26.15;47.18
61359;BME280;47228;46.762;23.598;2023-09-12T09:53:31;97344.58;;;26.26;46.36
61359;BME280;47228;46.762;23.598;2023-09-12T09:58:56;97339.59;;;26.46;44.97
61359;BME280;47228;46.762;23.598;2023-09-12T10:01:28;97341.95;;;26.59;44.42
61359;BME280;47228;46.762;23.598;2023-09-12T10:04:01;97340.05;;;26.69;44.77
61359;BME280;47228;46.762;23.598;2023-09-12T10:06:31;97338.39;;;26.81;44.46
61359;BME280;47228;46.762;23.598;2023-09-12T10:09:00;97336.92;;;26.92;44.00
61359;BME280;47228;46.762;23.598;2023-09-12T10:11:31;97335.96;;;27.03;43.64
61359;BME280;47228;46.762;23.598;2023-09-12T10:14:03;97337.68;;;27.16;43.37
61359;BME280;47228;46.762;23.598;2023-09-12T10:16:34;97333.66;;;27.26;42.76
61359;BME280;47228;46.762;23.598;2023-09-12T10:19:24;97333.20;;;27.35;42.56
61359;BME280;47228;46.762;23.598;2023-09-12T10:22:06;97334.08;;;27.42;41.66
61359;BME280;47228;46.762;23.598;2023-09-12T10:24:35;97332.19;;;27.46;41.47
61359;BME280;47228;46.762;23.598;2023-09-12T10:27:05;97331.64;;;27.53;41.74
61359;BME280;47228;46.762;23.598;2023-09-12T10:29:33;97327.65;;;27.57;41.09
61359;BME280;47228;46.762;23.598;2023-09-12T10:32:01;97327.08;;;27.63;41.76
61359;BME280;47228;46.762;23.598;2023-09-12T10:34:32;97326.04;;;27.69;41.36
61359;BME280;47228;46.762;23.598;2023-09-12T10:37:00;97322.92;;;27.72;40.98
61359;BME280;47228;46.762;23.598;2023-09-12T10:39:34;97324.52;;;27.78;40.84
61359;BME280;47228;46.762;23.598;2023-09-12T10:42:04;97322.69;;;27.84;40.48
61359;BME280;47228;46.762;23.598;2023-09-12T10:44:33;97324.00;;;27.90;40.38
61359;BME280;47228;46.762;23.598;2023-09-12T10:47:02;97321.98;;;27.94;40.22
61359;BME280;47228;46.762;23.598;2023-09-12T10:49:33;97320.76;;;27.98;39.93
61359;BME280;47228;46.762;23.598;2023-09-12T10:52:02;97317.90;;;28.09;39.35
61359;BME280;47228;46.762;23.598;2023-09-12T10:54:40;97318.02;;;28.27;39.57
61359;BME280;47228;46.762;23.598;2023-09-12T10:57:10;97320.18;;;28.50;39.63
61359;BME280;47228;46.762;23.598;2023-09-12T11:04:58;97314.27;;;29.13;38.06
61359;BME280;47228;46.762;23.598;2023-09-12T11:07:44;97315.67;;;29.28;37.78
61359;BME280;47228;46.762;23.598;2023-09-12T11:12:41;97311.83;;;29.47;37.83
61359;BME280;47228;46.762;23.598;2023-09-12T11:15:10;97311.55;;;29.56;37.11
61359;BME280;47228;46.762;23.598;2023-09-12T11:17:43;97312.06;;;29.63;36.48
61359;BME280;47228;46.762;23.598;2023-09-12T11:20:12;97306.41;;;29.66;35.77
61359;BME280;47228;46.762;23.598;2023-09-12T11:22:46;97298.61;;;29.57;35.89
61359;BME280;47228;46.762;23.598;2023-09-12T11:25:22;97296.54;;;29.47;35.91
61359;BME280;47228;46.762;23.598;2023-09-12T11:30:23;97293.02;;;29.09;36.18
61359;BME280;47228;46.762;23.598;2023-09-12T11:32:54;97288.62;;;28.93;36.93
61359;BME280;47228;46.762;23.598;2023-09-12T11:35:24;97286.92;;;28.81;36.91
61359;BME280;47228;46.762;23.598;2023-09-12T11:37:57;97286.31;;;28.70;36.80
61359;BME280;47228;46.762;23.598;2023-09-12T11:40:42;97286.88;;;28.58;36.77
61359;BME280;47228;46.762;23.598;2023-09-12T11:43:25;97284.63;;;28.43;36.73
61359;BME280;47228;46.762;23.598;2023-09-12T11:45:55;97287.59;;;28.34;37.86
61359;BME280;47228;46.762;23.598;2023-09-12T11:48:23;97285.98;;;28.28;37.69
61359;BME280;47228;46.762;23.598;2023-09-12T11:50:56;97283.45;;;28.22;37.38
61359;BME280;47228;46.762;23.598;2023-09-12T11:53:27;97282.17;;;28.16;37.73
61359;BME280;47228;46.762;23.598;2023-09-12T11:55:58;97284.16;;;28.10;37.90
61359;BME280;47228;46.762;23.598;2023-09-12T11:58:27;97282.46;;;28.03;37.82
61359;BME280;47228;46.762;23.598;2023-09-12T12:00:57;97283.65;;;27.96;38.06
61359;BME280;47228;46.762;23.598;2023-09-12T12:03:27;97284.67;;;27.93;38.28
61359;BME280;47228;46.762;23.598;2023-09-12T12:05:56;97282.25;;;27.90;37.72
61359;BME280;47228;46.762;23.598;2023-09-12T12:08:25;97278.79;;;27.87;38.00
61359;BME280;47228;46.762;23.598;2023-09-12T12:10:59;97272.42;;;27.84;37.90
61359;BME280;47228;46.762;23.598;2023-09-12T12:13:28;97269.32;;;27.79;37.28
61359;BME280;47228;46.762;23.598;2023-09-12T12:15:57;97266.53;;;27.70;37.10
61359;BME280;47228;46.762;23.598;2023-09-12T12:18:25;97263.52;;;27.60;37.29
61359;BME280;47228;46.762;23.598;2023-09-12T12:20:54;97263.56;;;27.57;37.45
61359;BME280;47228;46.762;23.598;2023-09-12T12:23:22;97260.64;;;27.54;37.59
61359;BME280;47228;46.762;23.598;2023-09-12T12:25:51;97258.48;;;27.55;38.06
61359;BME280;47228;46.762;23.598;2023-09-12T12:28:20;97257.35;;;27.59;38.64
61359;BME280;47228;46.762;23.598;2023-09-12T12:30:50;97252.89;;;27.63;38.35
61359;BME280;47228;46.762;23.598;2023-09-12T12:33:19;97254.34;;;27.66;38.05
61359;BME280;47228;46.762;23.598;2023-09-12T12:36:07;97250.98;;;27.69;38.21
61359;BME280;47228;46.762;23.598;2023-09-12T12:38:37;97249.23;;;27.71;38.04
61359;BME280;47228;46.762;23.598;2023-09-12T12:41:25;97243.71;;;27.76;38.32
61359;BME280;47228;46.762;23.598;2023-09-12T12:44:01;97243.77;;;27.80;38.03
61359;BME280;47228;46.762;23.598;2023-09-12T12:46:30;97237.38;;;27.83;38.33
61359;BME280;47228;46.762;23.598;2023-09-12T12:48:59;97234.81;;;27.87;38.16
61359;BME280;47228;46.762;23.598;2023-09-12T12:51:27;97233.73;;;27.91;37.99
61359;BME280;47228;46.762;23.598;2023-09-12T12:54:04;97235.74;;;27.94;38.02
61359;BME280;47228;46.762;23.598;2023-09-12T12:56:34;97239.23;;;27.97;38.07
61359;BME280;47228;46.762;23.598;2023-09-12T12:59:04;97238.61;;;28.01;37.62
61359;BME280;47228;46.762;23.598;2023-09-12T13:01:35;97238.21;;;28.04;37.37
61359;BME280;47228;46.762;23.598;2023-09-12T13:04:08;97236.38;;;28.07;36.95
61359;BME280;47228;46.762;23.598;2023-09-12T13:06:36;97236.31;;;28.11;36.48
61359;BME280;47228;46.762;23.598;2023-09-12T13:09:06;97240.83;;;28.20;37.09
61359;BME280;47228;46.762;23.598;2023-09-12T13:11:34;97235.13;;;28.28;36.97
61359;BME280;47228;46.762;23.598;2023-09-12T13:14:04;97232.13;;;28.34;36.73
61359;BME280;47228;46.762;23.598;2023-09-12T13:16:39;97230.97;;;28.44;36.55
61359;BME280;47228;46.762;23.598;2023-09-12T13:19:09;97226.13;;;28.53;36.30